Time;durP1;ratioP1;P1;durP2;ratioP2;P2;SDS_P1;SDS_P2;PMS_P1;PMS_P2;Temp;Humidity;BMP_temperature;BMP_pressure;BME280_temperature;BME280_humidity;BME280_pressure;Samples;Min_cycle;Max_cycle;Signal;HPM_P1;HPM_P2
2023/07/29 00:02:04;;;;;;;8.13;4.90;;;17.20;99.90;;;;;;4970975;28;20502;-65
2023/07/29 00:04:32;;;;;;;5.43;4.93;;;17.30;99.90;;;;;;4971590;28;20502;-65
2023/07/29 00:07:02;;;;;;;6.33;5.10;;;17.40;99.90;;;;;;4988950;28;21025;-65
2023/07/29 00:09:29;;;;;;;5.53;4.50;;;17.30;99.90;;;;;;4989889;28;20457;-65
2023/07/29 00:11:57;;;;;;;7.53;4.87;;;17.30;99.90;;;;;;4988273;28;20462;-65
2023/07/29 00:14:25;;;;;;;5.63;5.03;;;17.30;99.90;;;;;;4985081;28;20549;-65
2023/07/29 00:16:53;;;;;;;6.20;5.27;;;17.30;99.90;;;;;;4987162;28;20525;-65
2023/07/29 00:19:23;;;;;;;7.33;5.20;;;17.30;99.90;;;;;;4990684;28;20443;-65
2023/07/29 00:21:51;;;;;;;7.70;5.60;;;17.30;99.90;;;;;;4982890;28;20467;-64
2023/07/29 00:24:20;;;;;;;5.50;4.40;;;17.20;99.90;;;;;;4971143;28;20495;-65
2023/07/29 00:26:48;;;;;;;8.13;4.73;;;17.30;99.90;;;;;;4972811;28;20471;-65
2023/07/29 00:29:16;;;;;;;4.53;4.13;;;17.30;99.90;;;;;;4972523;28;20450;-65
2023/07/29 00:31:44;;;;;;;5.77;4.37;;;17.30;99.90;;;;;;4973085;28;20960;-65
2023/07/29 00:34:17;;;;;;;5.77;5.27;;;17.30;99.90;;;;;;4971323;28;20986;-65
2023/07/29 00:36:45;;;;;;;5.17;4.67;;;17.30;99.90;;;;;;4973052;28;20807;-62
2023/07/29 00:39:13;;;;;;;5.53;4.00;;;17.30;99.90;;;;;;4981257;28;20447;-62
2023/07/29 00:41:42;;;;;;;7.20;4.20;;;17.50;99.90;;;;;;4978187;28;20865;-62
2023/07/29 00:44:10;;;;;;;4.10;3.70;;;17.50;99.90;;;;;;4979998;28;20470;-62
2023/07/29 00:46:40;;;;;;;5.10;3.90;;;17.60;99.90;;;;;;4973166;28;20559;-64
2023/07/29 00:49:09;;;;;;;3.40;3.10;;;17.60;99.90;;;;;;4972534;28;20447;-64
2023/07/29 00:51:37;;;;;;;3.73;3.43;;;17.70;99.90;;;;;;4973000;28;20450;-65
2023/07/29 00:54:05;;;;;;;4.67;3.90;;;17.60;99.90;;;;;;4972686;28;20488;-64
2023/07/29 00:56:33;;;;;;;4.83;3.30;;;17.60;99.90;;;;;;4973072;28;20440;-64
2023/07/29 00:59:04;;;;;;;3.90;3.60;;;17.50;99.90;;;;;;4971131;28;20514;-65
2023/07/29 01:01:32;;;;;;;5.23;4.20;;;17.40;99.90;;;;;;4971364;28;20538;-64
2023/07/29 01:04:00;;;;;;;6.93;4.30;;;17.40;99.90;;;;;;4970281;28;20554;-64
2023/07/29 01:06:37;;;;;;;4.97;4.27;;;17.50;99.90;;;;;;4971366;28;20522;-65
2023/07/29 01:09:09;;;;;;;4.70;4.30;;;17.50;99.90;;;;;;4971162;28;20448;-64
2023/07/29 01:11:47;;;;;;;5.77;4.43;;;17.50;99.90;;;;;;4977593;28;20458;-65
2023/07/29 01:14:26;;;;;;;5.73;4.33;;;17.50;99.90;;;;;;4978786;28;20517;-65
2023/07/29 01:16:59;;;;;;;5.37;3.63;;;17.50;99.90;;;;;;4977581;28;20890;-65
2023/07/29 01:19:43;;;;;;;5.10;3.70;;;17.40;99.90;;;;;;4990194;28;20461;-65
2023/07/29 01:22:12;;;;;;;3.87;3.47;;;17.40;99.90;;;;;;4997833;28;20438;-64
2023/07/29 01:24:41;;;;;;;3.90;3.30;;;17.40;99.90;;;;;;4994528;28;20470;-65
2023/07/29 01:27:09;;;;;;;3.90;3.20;;;17.50;99.90;;;;;;4989897;28;20474;-64
2023/07/29 01:29:37;;;;;;;3.90;3.20;;;17.50;99.90;;;;;;4991399;28;20450;-64
2023/07/29 01:32:12;;;;;;;3.47;3.13;;;17.40;99.90;;;;;;4996022;28;20438;-63
2023/07/29 01:34:45;;;;;;;3.43;3.13;;;17.50;99.90;;;;;;4990850;28;20545;-65
2023/07/29 01:37:20;;;;;;;5.23;2.83;;;17.50;99.90;;;;;;4991419;28;20482;-64
2023/07/29 01:39:51;;;;;;;3.07;2.20;;;17.60;99.90;;;;;;4991701;28;20573;-64
2023/07/29 01:42:20;;;;;;;3.30;2.87;;;17.60;99.90;;;;;;4990488;28;20499;-64
2023/07/29 01:44:47;;;;;;;3.60;2.50;;;17.50;99.90;;;;;;4983651;28;20446;-65
2023/07/29 01:47:17;;;;;;;5.53;2.57;;;17.50;99.90;;;;;;4989827;28;20486;-65
2023/07/29 01:49:45;;;;;;;4.10;3.00;;;17.60;99.90;;;;;;4991184;28;20549;-65
2023/07/29 01:52:13;;;;;;;3.40;3.10;;;17.50;99.90;;;;;;4973804;28;20483;-65
2023/07/29 01:54:41;;;;;;;3.20;2.90;;;17.50;99.90;;;;;;4971418;28;20448;-65
2023/07/29 01:57:10;;;;;;;3.17;2.50;;;17.50;99.90;;;;;;4971607;28;21021;-65
2023/07/29 01:59:38;;;;;;;3.60;2.40;;;17.60;99.90;;;;;;4971708;28;20451;-65
2023/07/29 02:02:06;;;;;;;3.77;3.30;;;17.60;99.90;;;;;;4970425;28;20886;-62
2023/07/29 02:04:34;;;;;;;2.60;2.40;;;17.70;99.90;;;;;;4972031;28;20498;-65
2023/07/29 02:07:02;;;;;;;2.87;2.10;;;17.70;99.90;;;;;;4973033;28;20943;-65
2023/07/29 02:09:30;;;;;;;3.33;2.33;;;17.70;99.90;;;;;;4971177;28;20807;-64
2023/07/29 02:11:58;;;;;;;2.70;2.40;;;17.60;99.90;;;;;;4978762;28;20544;-65
2023/07/29 02:14:28;;;;;;;4.33;2.37;;;17.60;99.90;;;;;;4981471;28;20467;-65
2023/07/29 02:16:56;;;;;;;4.97;2.17;;;17.50;99.90;;;;;;4990268;28;20443;-62
2023/07/29 02:19:24;;;;;;;4.57;2.70;;;17.50;99.90;;;;;;4990596;28;20449;-65
2023/07/29 02:21:51;;;;;;;3.33;2.23;;;17.60;99.90;;;;;;4983518;28;20475;-64
2023/07/29 02:24:19;;;;;;;7.73;2.73;;;17.60;99.90;;;;;;4969206;28;20471;-65
2023/07/29 02:26:47;;;;;;;3.13;2.83;;;17.50;99.90;;;;;;4971150;28;20448;-64
2023/07/29 02:29:15;;;;;;;4.23;2.57;;;17.50;99.90;;;;;;4971030;28;21028;-65
2023/07/29 02:31:44;;;;;;;2.30;2.10;;;17.40;99.90;;;;;;4970972;28;20798;-65
2023/07/29 02:34:12;;;;;;;3.17;2.40;;;17.40;99.90;;;;;;4970095;28;20479;-64
2023/07/29 02:36:40;;;;;;;2.80;2.40;;;17.30;99.90;;;;;;4971384;28;20456;-65
2023/07/29 02:39:08;;;;;;;2.70;2.20;;;17.20;99.90;;;;;;4986295;28;20456;-62
2023/07/29 02:41:36;;;;;;;2.70;2.37;;;17.30;99.90;;;;;;4990394;28;20454;-64
2023/07/29 02:44:06;;;;;;;2.80;1.93;;;17.30;99.90;;;;;;4980509;28;20463;-64
2023/07/29 02:46:34;;;;;;;3.07;2.13;;;17.30;99.90;;;;;;4990438;28;20447;-64
2023/07/29 02:49:04;;;;;;;4.80;2.60;;;17.50;99.90;;;;;;4990169;28;20486;-65
2023/07/29 02:51:32;;;;;;;2.50;2.30;;;17.40;99.90;;;;;;4990596;28;20443;-65
2023/07/29 02:54:00;;;;;;;3.27;2.40;;;17.50;99.90;;;;;;4987220;28;20474;-64
2023/07/29 02:56:28;;;;;;;5.10;4.03;;;17.40;99.90;;;;;;4990249;28;20502;-65
2023/07/29 02:58:56;;;;;;;2.33;2.13;;;17.40;99.90;;;;;;4990098;28;21007;-65
2023/07/29 03:01:25;;;;;;;2.53;2.33;;;17.30;99.90;;;;;;4989131;28;20453;-64
2023/07/29 03:03:53;;;;;;;2.27;2.07;;;17.40;99.90;;;;;;4989135;28;20505;-63
2023/07/29 03:06:23;;;;;;;2.70;1.93;;;17.40;99.90;;;;;;4990919;28;20450;-64
2023/07/29 03:08:51;;;;;;;2.57;2.20;;;17.40;99.90;;;;;;4989870;28;20522;-64
2023/07/29 03:11:19;;;;;;;5.20;2.60;;;17.30;99.90;;;;;;4989531;28;20469;-64
2023/07/29 03:13:47;;;;;;;5.43;2.43;;;17.20;99.90;;;;;;4980551;28;20499;-64
2023/07/29 03:16:16;;;;;;;4.93;2.77;;;17.30;99.90;;;;;;4991271;28;20455;-64
2023/07/29 03:18:45;;;;;;;7.20;2.97;;;17.20;99.90;;;;;;4990927;28;20814;-64
2023/07/29 03:21:13;;;;;;;4.67;2.67;;;17.20;99.90;;;;;;4990825;28;20447;-64
2023/07/29 03:23:42;;;;;;;3.43;2.57;;;17.20;99.90;;;;;;4989116;28;20463;-65
2023/07/29 03:26:10;;;;;;;2.17;1.97;;;17.20;99.90;;;;;;4990802;28;21020;-64
2023/07/29 03:28:40;;;;;;;2.60;2.30;;;17.20;99.90;;;;;;4988667;28;20487;-65
2023/07/29 03:31:08;;;;;;;6.73;2.73;;;17.20;99.90;;;;;;4989004;28;20454;-64
2023/07/29 03:33:36;;;;;;;4.53;2.70;;;17.20;99.90;;;;;;4988754;28;20462;-64
2023/07/29 03:36:05;;;;;;;5.70;3.37;;;17.20;99.90;;;;;;4989395;28;20447;-64
2023/07/29 03:38:35;;;;;;;2.63;2.43;;;17.10;99.90;;;;;;4990008;28;20462;-64
2023/07/29 03:41:04;;;;;;;3.80;2.87;;;17.10;99.90;;;;;;4990072;28;20451;-64
2023/07/29 03:43:32;;;;;;;4.07;2.90;;;17.10;99.90;;;;;;4976596;28;21064;-63
2023/07/29 03:46:01;;;;;;;3.60;2.60;;;17.20;99.90;;;;;;4987798;28;20450;-63
2023/07/29 03:48:31;;;;;;;3.50;3.10;;;17.20;99.90;;;;;;4988849;28;20489;-63
2023/07/29 03:50:59;;;;;;;2.73;2.20;;;17.30;99.90;;;;;;4982895;28;20554;-63
2023/07/29 03:53:27;;;;;;;3.70;3.30;;;17.40;99.90;;;;;;4968477;28;20455;-64
2023/07/29 03:55:55;;;;;;;5.37;2.80;;;17.30;99.90;;;;;;4970091;28;20478;-64
2023/07/29 03:58:24;;;;;;;3.27;2.60;;;17.40;99.90;;;;;;4970224;28;20503;-64
2023/07/29 04:00:52;;;;;;;4.93;3.17;;;17.30;99.90;;;;;;4970115;28;20448;-64
2023/07/29 04:03:20;;;;;;;3.10;2.77;;;17.40;99.90;;;;;;4968830;28;20467;-64
2023/07/29 04:05:48;;;;;;;2.93;2.70;;;17.40;99.90;;;;;;4981719;28;20577;-64
2023/07/29 04:08:16;;;;;;;3.70;3.30;;;17.50;99.90;;;;;;4989101;28;20493;-64
2023/07/29 04:10:44;;;;;;;6.73;3.70;;;17.60;99.90;;;;;;4990940;28;20447;-64
2023/07/29 04:13:12;;;;;;;3.53;2.87;;;17.50;99.90;;;;;;4986333;28;20885;-65
2023/07/29 04:15:41;;;;;;;4.60;4.20;;;17.50;99.90;;;;;;4988733;28;20453;-65
2023/07/29 04:18:09;;;;;;;5.30;3.47;;;17.40;99.90;;;;;;4992265;28;20444;-65
2023/07/29 04:20:37;;;;;;;4.40;3.67;;;17.30;99.90;;;;;;4990914;28;20969;-65
2023/07/29 04:23:05;;;;;;;5.03;3.60;;;17.40;99.90;;;;;;4971922;28;20467;-65
2023/07/29 04:25:32;;;;;;;5.17;3.50;;;17.50;99.90;;;;;;4973766;28;20522;-64
2023/07/29 04:28:03;;;;;;;5.33;2.97;;;17.50;99.90;;;;;;4973150;28;21004;-65
2023/07/29 04:30:30;;;;;;;4.17;3.20;;;17.40;99.90;;;;;;4973669;28;20451;-64
2023/07/29 04:33:00;;;;;;;4.03;2.50;;;17.50;99.90;;;;;;4972266;28;20464;-65
2023/07/29 04:35:28;;;;;;;4.30;3.67;;;17.50;99.90;;;;;;4989696;28;20457;-64
2023/07/29 04:37:56;;;;;;;3.40;3.10;;;17.40;99.90;;;;;;4993041;28;20439;-65
2023/07/29 04:40:23;;;;;;;3.80;3.00;;;17.50;99.90;;;;;;4992547;28;20967;-65
2023/07/29 04:42:52;;;;;;;4.43;3.00;;;17.50;99.90;;;;;;4989972;28;21019;-65
2023/07/29 04:45:20;;;;;;;4.63;4.10;;;17.60;99.90;;;;;;4975272;28;20451;-65
2023/07/29 04:47:48;;;;;;;7.03;3.40;;;17.50;99.90;;;;;;4973411;28;20447;-65
2023/07/29 04:50:17;;;;;;;4.93;3.63;;;17.50;99.90;;;;;;4973049;28;20444;-65
2023/07/29 04:52:45;;;;;;;6.70;4.07;;;17.50;99.90;;;;;;4972205;28;20479;-62
2023/07/29 04:55:13;;;;;;;8.70;3.90;;;17.50;99.90;;;;;;4973171;28;20530;-63
2023/07/29 04:57:41;;;;;;;4.70;3.93;;;17.40;99.90;;;;;;4973153;28;20465;-63
2023/07/29 05:00:10;;;;;;;4.47;3.63;;;17.40;99.90;;;;;;4989852;28;20447;-63
2023/07/29 05:02:37;;;;;;;4.60;3.83;;;17.40;99.90;;;;;;4991257;28;20471;-63
2023/07/29 05:05:06;;;;;;;8.33;4.30;;;17.40;99.90;;;;;;4992688;28;20447;-62
2023/07/29 05:07:35;;;;;;;8.03;3.90;;;17.40;99.90;;;;;;4992300;28;20451;-63
2023/07/29 05:10:04;;;;;;;7.10;4.27;;;17.40;99.90;;;;;;4992780;28;20501;-63
2023/07/29 05:12:32;;;;;;;12.13;4.50;;;17.40;99.90;;;;;;4991601;28;20562;-65
2023/07/29 05:15:00;;;;;;;7.70;3.70;;;17.40;99.90;;;;;;4981330;28;20552;-65
2023/07/29 05:17:28;;;;;;;5.20;3.93;;;17.40;99.90;;;;;;4992407;28;20824;-65
2023/07/29 05:19:56;;;;;;;10.60;4.63;;;17.50;99.90;;;;;;4991891;28;20442;-65
2023/07/29 05:22:24;;;;;;;14.80;5.30;;;17.50;99.90;;;;;;4990813;28;20537;-63
2023/07/29 05:24:54;;;;;;;4.13;3.60;;;17.60;99.90;;;;;;4991867;28;20482;-65
2023/07/29 05:27:22;;;;;;;4.50;4.10;;;17.70;99.90;;;;;;4992005;28;21179;-65
2023/07/29 05:29:50;;;;;;;2.77;2.53;;;17.80;99.90;;;;;;4991947;28;20552;-65
2023/07/29 05:32:17;;;;;;;5.97;3.00;;;18.00;99.90;;;;;;4981209;28;20980;-64
2023/07/29 05:34:46;;;;;;;6.97;3.10;;;18.00;99.90;;;;;;4971239;28;20716;-65
2023/07/29 05:37:14;;;;;;;3.57;2.87;;;18.10;99.90;;;;;;4971056;28;20523;-65
2023/07/29 05:39:42;;;;;;;3.67;3.30;;;18.10;99.90;;;;;;4970623;28;20478;-65
2023/07/29 05:42:11;;;;;;;5.00;3.30;;;18.10;99.90;;;;;;4979075;28;20550;-65
2023/07/29 05:44:39;;;;;;;3.50;3.20;;;18.20;99.90;;;;;;4982097;28;20450;-65
2023/07/29 05:47:07;;;;;;;3.90;2.90;;;18.20;99.90;;;;;;4991149;28;20442;-65
2023/07/29 05:49:35;;;;;;;2.97;2.73;;;18.40;99.90;;;;;;4990365;28;21104;-65
2023/07/29 05:52:03;;;;;;;3.43;2.77;;;18.40;99.90;;;;;;4976296;28;20515;-64
2023/07/29 05:54:31;;;;;;;4.73;2.77;;;18.40;99.90;;;;;;4970518;28;20530;-65
2023/07/29 05:56:59;;;;;;;2.77;2.57;;;18.50;99.90;;;;;;4972009;28;20471;-64
2023/07/29 05:59:29;;;;;;;2.60;2.40;;;18.60;99.90;;;;;;4971104;28;20462;-65
2023/07/29 06:01:57;;;;;;;2.60;2.40;;;18.70;99.90;;;;;;4971233;28;20486;-65
2023/07/29 06:04:25;;;;;;;9.60;2.57;;;18.70;99.90;;;;;;4970300;28;21029;-65
2023/07/29 06:06:55;;;;;;;3.37;2.50;;;18.80;99.90;;;;;;4990710;28;20451;-65
2023/07/29 06:09:23;;;;;;;2.87;2.57;;;18.90;99.90;;;;;;4990752;28;20536;-65
2023/07/29 06:11:51;;;;;;;6.63;2.57;;;19.00;99.90;;;;;;4990661;28;20454;-65
2023/07/29 06:14:22;;;;;;;3.40;3.07;;;19.20;99.90;;;;;;4981403;28;21035;-65
2023/07/29 06:16:51;;;;;;;4.37;2.97;;;19.30;99.90;;;;;;4990750;28;20516;-65
2023/07/29 06:19:20;;;;;;;3.07;2.70;;;19.40;99.90;;;;;;4991048;28;20759;-65
2023/07/29 06:21:49;;;;;;;2.83;2.30;;;19.60;99.90;;;;;;4982650;28;20518;-65
2023/07/29 06:24:17;;;;;;;2.53;2.33;;;19.70;99.90;;;;;;4970158;28;20560;-65
2023/07/29 06:26:45;;;;;;;4.93;2.73;;;19.80;99.90;;;;;;4971273;28;20482;-65
2023/07/29 06:29:13;;;;;;;5.63;2.60;;;19.90;99.90;;;;;;4970911;28;20874;-63
2023/07/29 06:31:40;;;;;;;7.53;3.10;;;20.10;99.90;;;;;;4971069;28;20454;-63
2023/07/29 06:34:10;;;;;;;5.30;3.10;;;20.10;99.90;;;;;;4969449;28;20459;-65
2023/07/29 06:36:38;;;;;;;3.10;2.30;;;20.10;99.90;;;;;;4971201;28;20479;-65
2023/07/29 06:39:06;;;;;;;4.57;2.63;;;20.10;99.90;;;;;;4972194;28;20455;-63
2023/07/29 06:41:34;;;;;;;9.90;2.50;;;20.00;99.90;;;;;;4975108;28;20455;-66
2023/07/29 06:44:02;;;;;;;4.07;2.20;;;20.10;99.90;;;;;;4981386;28;20532;-65
2023/07/29 06:46:30;;;;;;;10.43;3.80;;;20.10;99.90;;;;;;4990533;28;20454;-65
2023/07/29 06:48:58;;;;;;;4.00;3.20;;;20.00;99.90;;;;;;4990642;28;20446;-65
2023/07/29 06:51:29;;;;;;;3.73;2.40;;;20.00;99.90;;;;;;4990424;28;20509;-63
2023/07/29 06:53:57;;;;;;;4.33;2.57;;;19.80;99.90;;;;;;4987336;28;20854;-65
2023/07/29 06:56:25;;;;;;;5.13;2.70;;;19.80;99.90;;;;;;4989856;28;20509;-65
2023/07/29 06:58:53;;;;;;;5.07;2.70;;;19.60;99.90;;;;;;4990056;28;20446;-65
2023/07/29 07:01:21;;;;;;;3.63;2.67;;;19.60;99.90;;;;;;4990379;28;20442;-65
2023/07/29 07:03:48;;;;;;;4.53;2.77;;;19.50;99.90;;;;;;4988538;28;20463;-65
2023/07/29 07:06:16;;;;;;;5.43;3.60;;;19.40;99.90;;;;;;4989460;28;20545;-65
2023/07/29 07:08:46;;;;;;;4.90;2.73;;;19.40;99.90;;;;;;4988350;28;20513;-65
2023/07/29 07:11:14;;;;;;;5.17;3.03;;;19.40;99.90;;;;;;4982272;28;20570;-64
2023/07/29 07:13:42;;;;;;;4.43;3.07;;;19.30;99.90;;;;;;4980331;28;20843;-65
2023/07/29 07:16:09;;;;;;;3.63;3.20;;;19.10;99.90;;;;;;4989667;28;20505;-65
2023/07/29 07:18:40;;;;;;;5.80;3.13;;;19.10;99.90;;;;;;4989558;28;20442;-65
2023/07/29 07:21:08;;;;;;;6.53;3.57;;;19.00;99.90;;;;;;4988924;28;20502;-63
2023/07/29 07:23:36;;;;;;;4.93;3.50;;;19.00;99.90;;;;;;4988554;28;20529;-65
2023/07/29 07:26:05;;;;;;;5.30;3.40;;;19.00;99.90;;;;;;4989599;28;20457;-65
2023/07/29 07:28:34;;;;;;;7.80;3.73;;;18.90;99.90;;;;;;4977139;28;20448;-65
2023/07/29 07:31:02;;;;;;;4.67;3.90;;;18.80;99.90;;;;;;4969927;28;20483;-65
2023/07/29 07:33:29;;;;;;;4.03;3.47;;;18.80;99.90;;;;;;4968890;28;20570;-65
2023/07/29 07:35:57;;;;;;;6.27;3.90;;;18.90;99.90;;;;;;4970979;28;20440;-65
2023/07/29 07:38:30;;;;;;;7.80;3.97;;;19.00;99.90;;;;;;4978344;28;20867;-64
2023/07/29 07:40:58;;;;;;;7.53;3.60;;;19.10;99.90;;;;;;4990236;28;20447;-65
2023/07/29 07:43:27;;;;;;;3.30;3.00;;;19.10;99.90;;;;;;4982570;28;20855;-64
2023/07/29 07:45:59;;;;;;;3.53;3.03;;;19.20;99.90;;;;;;4991509;28;20452;-64
2023/07/29 07:48:27;;;;;;;4.40;3.10;;;19.30;99.90;;;;;;4994020;28;20439;-63
2023/07/29 07:50:55;;;;;;;3.23;2.73;;;19.40;99.90;;;;;;4991644;28;20916;-63
2023/07/29 07:53:25;;;;;;;7.47;3.10;;;19.60;99.90;;;;;;4992079;28;20467;-64
2023/07/29 07:55:55;;;;;;;6.00;2.83;;;19.70;99.90;;;;;;4993213;28;20537;-63
2023/07/29 07:58:24;;;;;;;3.43;2.83;;;19.80;99.90;;;;;;4993502;28;20525;-63
2023/07/29 08:01:01;;;;;;;6.70;3.40;;;19.90;99.90;;;;;;4993272;28;20442;-64
2023/07/29 08:03:29;;;;;;;5.90;3.00;;;19.90;99.90;;;;;;4977489;28;20473;-64
2023/07/29 08:05:57;;;;;;;3.80;2.90;;;20.10;99.90;;;;;;4974083;28;20452;-63
2023/07/29 08:08:25;;;;;;;3.53;2.90;;;20.30;99.90;;;;;;4973814;28;20447;-63
2023/07/29 08:10:54;;;;;;;4.97;2.60;;;20.50;99.90;;;;;;4988714;28;20479;-64
2023/07/29 08:13:22;;;;;;;2.60;2.00;;;20.70;99.90;;;;;;4986122;28;20471;-64
2023/07/29 08:15:51;;;;;;;2.33;1.90;;;20.70;99.90;;;;;;4989786;28;20952;-64
2023/07/29 08:18:21;;;;;;;3.43;2.00;;;20.70;99.90;;;;;;4973900;28;20522;-64
2023/07/29 08:20:54;;;;;;;2.53;1.97;;;20.80;99.90;;;;;;4974373;28;20439;-64
2023/07/29 08:23:22;;;;;;;3.43;2.13;;;21.00;99.90;;;;;;4973055;28;20467;-65
2023/07/29 08:26:00;;;;;;;4.13;1.90;;;21.20;99.90;;;;;;4973878;28;20447;-65
2023/07/29 08:28:29;;;;;;;3.00;1.97;;;21.50;99.90;;;;;;4973935;28;20964;-65
2023/07/29 08:30:57;;;;;;;2.60;2.10;;;21.70;99.90;;;;;;4973498;28;20486;-62
2023/07/29 08:33:27;;;;;;;1.73;1.63;;;21.80;99.90;;;;;;4981228;28;20467;-64
2023/07/29 08:35:56;;;;;;;3.20;1.93;;;21.90;99.90;;;;;;4992754;28;20520;-64
2023/07/29 08:38:24;;;;;;;2.13;1.90;;;21.80;99.90;;;;;;4993247;28;20450;-64
2023/07/29 08:41:03;;;;;;;6.03;1.80;;;21.80;99.90;;;;;;4993081;28;20825;-64
2023/07/29 08:43:33;;;;;;;2.43;2.23;;;21.90;99.90;;;;;;4980372;28;20452;-62
2023/07/29 08:46:01;;;;;;;5.40;2.17;;;22.10;99.90;;;;;;4992026;28;21226;-64
2023/07/29 08:48:37;;;;;;;3.53;2.00;;;22.20;99.90;;;;;;4992219;28;20438;-64
2023/07/29 08:51:05;;;;;;;2.03;1.83;;;22.30;99.90;;;;;;4974804;28;20487;-64
2023/07/29 08:53:33;;;;;;;2.80;1.90;;;22.40;99.90;;;;;;4972011;28;20543;-64
2023/07/29 08:56:01;;;;;;;2.20;1.77;;;22.60;99.90;;;;;;4972642;28;20866;-64
2023/07/29 08:58:30;;;;;;;3.27;1.77;;;22.80;99.90;;;;;;4973038;28;20833;-64
2023/07/29 09:00:58;;;;;;;3.43;2.10;;;22.90;99.90;;;;;;4972825;28;21013;-64
2023/07/29 09:03:26;;;;;;;2.80;1.63;;;23.30;99.90;;;;;;4971995;28;20989;-64
2023/07/29 09:05:58;;;;;;;2.57;1.70;;;23.70;99.90;;;;;;4991064;28;20450;-65
2023/07/29 09:08:27;;;;;;;1.80;1.63;;;24.20;99.90;;;;;;4992906;28;20446;-64
2023/07/29 09:10:56;;;;;;;3.20;1.30;;;24.50;99.90;;;;;;4992489;28;20923;-64
2023/07/29 09:13:23;;;;;;;2.07;1.60;;;24.60;99.90;;;;;;4985474;28;20474;-64
2023/07/29 09:15:55;;;;;;;3.93;1.60;;;24.90;99.90;;;;;;4990063;28;21032;-64
2023/07/29 09:18:23;;;;;;;2.10;1.27;;;25.10;99.90;;;;;;4986183;28;20444;-61
2023/07/29 09:20:51;;;;;;;4.63;2.13;;;25.10;99.90;;;;;;4973190;28;20490;-64
2023/07/29 09:23:21;;;;;;;2.67;1.70;;;25.00;99.90;;;;;;4970943;28;20981;-66
2023/07/29 09:25:49;;;;;;;2.60;1.47;;;25.00;99.90;;;;;;4972619;28;20938;-64
2023/07/29 09:28:17;;;;;;;2.77;2.30;;;25.20;99.90;;;;;;4972009;28;20943;-63
2023/07/29 09:30:48;;;;;;;10.50;9.60;;;25.30;99.90;;;;;;4972792;28;20850;-62
2023/07/29 09:33:16;;;;;;;3.70;1.97;;;25.60;99.90;;;;;;4971343;28;20869;-62
2023/07/29 09:35:45;;;;;;;2.37;2.00;;;25.70;99.90;;;;;;4988488;28;20497;-63
2023/07/29 09:38:16;;;;;;;1.93;1.73;;;26.00;99.90;;;;;;4991246;28;20447;-64
2023/07/29 09:40:45;;;;;;;1.93;1.60;;;26.30;99.90;;;;;;4991656;28;20451;-64
2023/07/29 09:43:17;;;;;;;1.73;1.13;;;26.60;99.90;;;;;;4985991;28;20503;-62
2023/07/29 09:45:47;;;;;;;1.47;1.20;;;26.10;99.90;;;;;;4988537;28;20549;-62
2023/07/29 09:48:15;;;;;;;1.53;1.00;;;25.90;99.90;;;;;;4991537;28;20537;-64
2023/07/29 09:50:43;;;;;;;1.40;1.30;;;26.00;99.90;;;;;;4989402;28;20497;-64
2023/07/29 09:53:12;;;;;;;1.30;1.20;;;26.00;99.90;;;;;;4979772;28;20837;-64
2023/07/29 09:55:40;;;;;;;1.70;1.27;;;25.30;99.90;;;;;;4972229;28;20447;-64
2023/07/29 09:58:09;;;;;;;1.93;1.77;;;24.90;99.90;;;;;;4971647;28;20454;-62
2023/07/29 10:00:38;;;;;;;1.57;1.37;;;24.50;99.90;;;;;;4971838;28;20448;-65
2023/07/29 10:03:07;;;;;;;2.37;1.47;;;24.60;99.90;;;;;;4970170;28;20464;-63
2023/07/29 10:05:35;;;;;;;2.00;1.33;;;25.00;99.90;;;;;;4981188;28;20466;-64
2023/07/29 10:08:05;;;;;;;1.70;1.60;;;25.00;99.90;;;;;;4975152;28;20984;-62
2023/07/29 10:10:33;;;;;;;1.30;1.20;;;25.20;99.90;;;;;;4972064;28;20467;-64
2023/07/29 10:13:02;;;;;;;1.60;1.50;;;25.40;99.90;;;;;;4982953;28;21179;-64
2023/07/29 10:15:33;;;;;;;1.73;1.60;;;25.50;99.90;;;;;;4985626;28;20447;-63
2023/07/29 10:18:02;;;;;;;1.50;1.40;;;25.10;99.90;;;;;;4991093;28;20462;-63
2023/07/29 10:20:32;;;;;;;1.60;1.30;;;24.50;99.90;;;;;;4992308;28;20486;-64
2023/07/29 10:23:01;;;;;;;4.00;1.40;;;23.90;99.90;;;;;;4987998;28;20549;-64
2023/07/29 10:25:37;;;;;;;3.90;1.90;;;23.40;99.90;;;;;;4989781;28;20489;-64
2023/07/29 10:28:07;;;;;;;1.30;1.20;;;23.20;99.90;;;;;;4987256;28;20442;-63
2023/07/29 10:30:37;;;;;;;3.90;1.33;;;22.90;99.90;;;;;;4988928;28;20972;-64
2023/07/29 10:33:06;;;;;;;2.10;1.37;;;22.70;99.90;;;;;;4988590;28;20494;-65
2023/07/29 10:35:35;;;;;;;1.20;1.10;;;22.60;99.90;;;;;;4989989;28;20505;-64
2023/07/29 10:38:04;;;;;;;1.20;1.10;;;22.50;99.90;;;;;;4983451;28;20443;-64
2023/07/29 10:40:46;;;;;;;1.10;1.00;;;22.40;99.90;;;;;;4971185;28;20462;-65
2023/07/29 10:43:20;;;;;;;1.90;1.77;;;22.50;99.90;;;;;;4969871;28;20490;-65
2023/07/29 10:45:49;;;;;;;1.63;1.40;;;22.80;99.90;;;;;;4972165;28;20439;-65
2023/07/29 10:48:44;;;;;;;1.50;1.20;;;23.10;99.90;;;;;;4971541;28;20439;-65
2023/07/29 10:51:30;;;;;;;1.77;1.17;;;23.20;99.90;;;;;;4971783;28;20467;-64
2023/07/29 10:53:59;;;;;;;3.30;2.60;;;23.50;99.90;;;;;;4971655;28;20471;-63
2023/07/29 10:56:29;;;;;;;2.20;2.00;;;23.70;99.90;;;;;;4990788;28;20447;-65
2023/07/29 10:58:58;;;;;;;1.77;1.40;;;24.10;99.90;;;;;;4990703;28;20548;-66
2023/07/29 11:01:33;;;;;;;1.53;1.43;;;24.60;99.90;;;;;;4990752;28;20509;-65
2023/07/29 11:04:23;;;;;;;2.60;1.23;;;25.30;99.90;;;;;;4989911;28;20504;-66
2023/07/29 11:07:23;;;;;;;1.87;1.00;;;25.70;99.90;;;;;;4984476;28;20455;-66
2023/07/29 11:09:59;;;;;;;3.20;1.43;;;25.40;99.90;;;;;;4997505;28;20492;-65
2023/07/29 11:12:42;;;;;;;1.53;1.10;;;25.00;99.90;;;;;;4998527;28;21079;-65
2023/07/29 11:15:16;;;;;;;1.60;1.13;;;25.10;99.90;;;;;;4974392;28;20535;-66
2023/07/29 11:17:48;;;;;;;1.80;1.47;;;25.40;99.90;;;;;;4990304;28;20450;-65
2023/07/29 11:20:18;;;;;;;1.50;1.20;;;25.30;99.90;;;;;;4994102;28;20439;-65
2023/07/29 11:22:46;;;;;;;2.60;1.33;;;25.30;99.90;;;;;;4993154;28;21011;-65
2023/07/29 11:25:15;;;;;;;1.30;1.20;;;25.40;99.90;;;;;;4995675;28;20528;-65
2023/07/29 11:27:44;;;;;;;1.83;1.23;;;25.70;99.90;;;;;;4998117;28;20541;-65
2023/07/29 11:30:14;;;;;;;1.50;1.40;;;26.20;99.90;;;;;;5001019;28;20458;-65
2023/07/29 11:32:43;;;;;;;1.83;1.73;;;26.60;99.90;;;;;;5004338;28;20719;-64
2023/07/29 11:35:15;;;;;;;2.30;1.50;;;26.20;99.90;;;;;;5007411;28;20445;-65
2023/07/29 11:37:45;;;;;;;1.60;1.50;;;26.00;99.90;;;;;;5005648;28;20804;-64
2023/07/29 11:40:15;;;;;;;3.30;1.30;;;25.60;99.90;;;;;;4993312;28;20530;-64
2023/07/29 11:42:44;;;;;;;3.80;1.30;;;25.50;99.90;;;;;;4985157;28;20824;-65
2023/07/29 11:45:13;;;;;;;1.10;1.00;;;25.70;99.90;;;;;;4984757;28;20445;-65
2023/07/29 11:47:45;;;;;;;1.37;1.20;;;26.10;99.90;;;;;;4988992;28;21026;-65
2023/07/29 11:50:15;;;;;;;1.80;1.40;;;26.40;99.90;;;;;;5000981;28;20474;-65
2023/07/29 11:52:46;;;;;;;1.57;1.20;;;26.40;99.90;;;;;;5003527;28;20485;-65
2023/07/29 11:55:16;;;;;;;1.23;1.07;;;26.30;99.90;;;;;;4990640;28;20481;-66
2023/07/29 11:57:44;;;;;;;1.53;1.43;;;26.00;99.90;;;;;;5004673;28;20468;-65
2023/07/29 12:00:14;;;;;;;1.10;1.00;;;25.70;99.90;;;;;;5004519;28;21156;-65
2023/07/29 12:02:45;;;;;;;1.20;1.10;;;25.90;99.90;;;;;;4988871;28;20486;-66
2023/07/29 12:05:15;;;;;;;1.40;1.30;;;26.50;99.90;;;;;;4993150;28;20479;-65
2023/07/29 12:07:45;;;;;;;2.40;1.70;;;27.20;99.90;;;;;;4993671;28;20964;-67
2023/07/29 12:10:13;;;;;;;1.87;1.17;;;27.50;99.90;;;;;;4993602;28;20491;-66
2023/07/29 12:12:48;;;;;;;1.60;1.40;;;27.70;99.90;;;;;;4992167;28;20585;-66
2023/07/29 12:15:24;;;;;;;1.40;1.30;;;27.90;97.70;;;;;;4993763;28;20449;-65
2023/07/29 12:17:56;;;;;;;1.43;1.33;;;27.90;97.20;;;;;;4993453;28;20472;-66
2023/07/29 12:20:27;;;;;;;1.30;1.20;;;27.90;97.10;;;;;;4993546;28;20970;-66
2023/07/29 12:22:57;;;;;;;2.00;1.70;;;28.10;95.70;;;;;;4990533;28;20509;-66
2023/07/29 12:25:26;;;;;;;1.60;1.47;;;28.00;95.30;;;;;;4993670;28;20449;-66
2023/07/29 12:27:54;;;;;;;2.60;1.77;;;27.90;95.70;;;;;;4981279;28;20461;-66
2023/07/29 12:30:22;;;;;;;2.87;2.10;;;27.80;97.40;;;;;;4980989;28;20459;-64
2023/07/29 12:32:51;;;;;;;1.87;1.70;;;27.80;95.50;;;;;;4987451;28;20538;-67
2023/07/29 12:35:19;;;;;;;2.27;1.30;;;27.70;96.70;;;;;;4987393;28;20465;-65
2023/07/29 12:37:59;;;;;;;1.70;1.40;;;28.30;95.40;;;;;;4995114;28;20490;-65
2023/07/29 12:40:28;;;;;;;1.97;1.77;;;27.90;91.80;;;;;;4991191;28;20447;-66
2023/07/29 12:42:58;;;;;;;2.30;1.53;;;27.80;87.90;;;;;;4982277;28;20459;-65
2023/07/29 12:45:28;;;;;;;2.37;2.13;;;27.80;89.20;;;;;;4989108;28;20443;-65
2023/07/29 12:47:57;;;;;;;1.87;1.67;;;28.30;89.70;;;;;;4991055;28;20443;-65
2023/07/29 12:50:25;;;;;;;2.33;2.00;;;28.90;81.60;;;;;;4986414;28;20498;-66
2023/07/29 12:52:54;;;;;;;2.47;1.90;;;29.10;76.00;;;;;;4970295;28;20558;-65
2023/07/29 12:55:23;;;;;;;1.83;1.67;;;29.10;75.20;;;;;;4971068;28;20440;-67
2023/07/29 12:57:51;;;;;;;3.83;1.60;;;29.40;69.40;;;;;;4971505;28;20528;-67